sensor_id;sensor_type;location;lat;lon;timestamp;pressure;altitude;pressure_sealevel;temperature;humidity
78409;BME280;67697;50.750;-3.270;2024-03-02T00:01:43;98061.68;;;3.70;100.00
78409;BME280;67697;50.750;-3.270;2024-03-02T00:04:09;98058.61;;;4.87;100.00
78409;BME280;67697;50.750;-3.270;2024-03-02T00:06:35;98056.17;;;3.90;100.00
78409;BME280;67697;50.750;-3.270;2024-03-02T00:09:00;98050.69;;;4.62;100.00
78409;BME280;67697;50.750;-3.270;2024-03-02T00:11:26;98050.63;;;3.63;100.00
78409;BME280;67697;50.750;-3.270;2024-03-02T00:13:53;98049.10;;;3.66;100.00
78409;BME280;67697;50.750;-3.270;2024-03-02T00:16:18;98050.07;;;3.93;100.00
78409;BME280;67697;50.750;-3.270;2024-03-02T00:18:44;98047.77;;;4.44;100.00
78409;BME280;67697;50.750;-3.270;2024-03-02T00:21:10;98044.21;;;3.45;100.00
78409;BME280;67697;50.750;-3.270;2024-03-02T00:23:34;98039.89;;;4.30;100.00
78409;BME280;67697;50.750;-3.270;2024-03-02T00:26:01;98037.53;;;4.33;100.00
78409;BME280;67697;50.750;-3.270;2024-03-02T00:28:27;98032.60;;;4.23;100.00
78409;BME280;67697;50.750;-3.270;2024-03-02T00:30:55;98029.93;;;4.30;100.00
78409;BME280;67697;50.750;-3.270;2024-03-02T00:33:16;98026.46;;;4.13;100.00
78409;BME280;67697;50.750;-3.270;2024-03-02T00:35:44;98028.05;;;2.79;100.00
78409;BME280;67697;50.750;-3.270;2024-03-02T00:38:08;98027.99;;;2.45;100.00
78409;BME280;67697;50.750;-3.270;2024-03-02T00:40:33;98021.70;;;4.56;100.00
78409;BME280;67697;50.750;-3.270;2024-03-02T00:43:00;98026.29;;;3.12;100.00
78409;BME280;67697;50.750;-3.270;2024-03-02T00:45:25;98028.73;;;2.50;100.00
78409;BME280;67697;50.750;-3.270;2024-03-02T00:47:50;98023.67;;;4.67;100.00
78409;BME280;67697;50.750;-3.270;2024-03-02T00:50:16;98020.36;;;4.48;100.00
78409;BME280;67697;50.750;-3.270;2024-03-02T00:52:42;98015.82;;;4.18;100.00
78409;BME280;67697;50.750;-3.270;2024-03-02T00:55:08;98011.81;;;4.47;100.00
78409;BME280;67697;50.750;-3.270;2024-03-02T00:57:34;98008.88;;;4.88;100.00
78409;BME280;67697;50.750;-3.270;2024-03-02T00:59:58;98014.01;;;3.60;100.00
78409;BME280;67697;50.750;-3.270;2024-03-02T01:02:24;98012.94;;;4.50;100.00
78409;BME280;67697;50.750;-3.270;2024-03-02T01:04:50;98014.31;;;3.21;100.00
78409;BME280;67697;50.750;-3.270;2024-03-02T01:07:15;98005.00;;;4.88;100.00
78409;BME280;67697;50.750;-3.270;2024-03-02T01:09:41;98008.47;;;3.80;100.00
78409;BME280;67697;50.750;-3.270;2024-03-02T01:12:07;98008.31;;;2.64;100.00
78409;BME280;67697;50.750;-3.270;2024-03-02T01:14:32;98010.34;;;3.25;100.00
78409;BME280;67697;50.750;-3.270;2024-03-02T01:16:57;98006.98;;;4.56;100.00
78409;BME280;67697;50.750;-3.270;2024-03-02T01:19:23;98000.54;;;4.95;100.00
78409;BME280;67697;50.750;-3.270;2024-03-02T01:21:48;98004.96;;;3.51;100.00
78409;BME280;67697;50.750;-3.270;2024-03-02T01:24:14;98003.88;;;4.30;100.00
78409;BME280;67697;50.750;-3.270;2024-03-02T01:26:40;98010.13;;;3.37;100.00
78409;BME280;67697;50.750;-3.270;2024-03-02T01:29:07;98006.28;;;3.55;100.00
78409;BME280;67697;50.750;-3.270;2024-03-02T01:31:31;98004.71;;;3.78;100.00
78409;BME280;67697;50.750;-3.270;2024-03-02T01:33:56;98007.85;;;3.04;100.00
78409;BME280;67697;50.750;-3.270;2024-03-02T01:36:22;98009.15;;;3.10;100.00
78409;BME280;67697;50.750;-3.270;2024-03-02T01:38:48;98007.75;;;3.72;100.00
78409;BME280;67697;50.750;-3.270;2024-03-02T01:41:14;98008.04;;;2.48;100.00
78409;BME280;67697;50.750;-3.270;2024-03-02T01:43:40;98003.69;;;3.08;100.00
78409;BME280;67697;50.750;-3.270;2024-03-02T01:46:05;98003.31;;;3.36;100.00
78409;BME280;67697;50.750;-3.270;2024-03-02T01:48:30;98007.10;;;3.30;100.00
78409;BME280;67697;50.750;-3.270;2024-03-02T01:50:55;98015.79;;;0.59;100.00
78409;BME280;67697;50.750;-3.270;2024-03-02T01:53:21;98014.46;;;1.47;100.00
78409;BME280;67697;50.750;-3.270;2024-03-02T01:55:46;98010.03;;;3.25;100.00
78409;BME280;67697;50.750;-3.270;2024-03-02T01:58:12;98010.09;;;3.42;100.00
78409;BME280;67697;50.750;-3.270;2024-03-02T02:00:37;98008.71;;;3.98;100.00
78409;BME280;67697;50.750;-3.270;2024-03-02T02:03:03;98008.66;;;2.93;100.00
78409;BME280;67697;50.750;-3.270;2024-03-02T02:05:29;98007.14;;;3.58;100.00
78409;BME280;67697;50.750;-3.270;2024-03-02T02:07:55;98012.65;;;1.97;100.00
78409;BME280;67697;50.750;-3.270;2024-03-02T02:10:20;98007.29;;;3.39;100.00
78409;BME280;67697;50.750;-3.270;2024-03-02T02:12:46;98008.12;;;3.18;100.00
78409;BME280;67697;50.750;-3.270;2024-03-02T02:15:22;98010.23;;;3.72;100.00
78409;BME280;67697;50.750;-3.270;2024-03-02T02:17:38;98002.85;;;4.80;100.00
78409;BME280;67697;50.750;-3.270;2024-03-02T02:20:03;98008.54;;;2.62;100.00
78409;BME280;67697;50.750;-3.270;2024-03-02T02:22:28;98005.68;;;2.89;100.00
78409;BME280;67697;50.750;-3.270;2024-03-02T02:24:54;98005.62;;;2.59;100.00
78409;BME280;67697;50.750;-3.270;2024-03-02T02:27:20;97994.86;;;3.06;100.00
78409;BME280;67697;50.750;-3.270;2024-03-02T02:29:45;97997.14;;;2.40;100.00
78409;BME280;67697;50.750;-3.270;2024-03-02T02:32:11;97995.32;;;3.49;100.00
78409;BME280;67697;50.750;-3.270;2024-03-02T02:34:36;97996.59;;;2.87;100.00
78409;BME280;67697;50.750;-3.270;2024-03-02T02:37:02;97994.10;;;3.99;100.00
78409;BME280;67697;50.750;-3.270;2024-03-02T02:39:27;97994.02;;;3.79;100.00
78409;BME280;67697;50.750;-3.270;2024-03-02T02:41:53;97990.76;;;4.20;100.00
78409;BME280;67697;50.750;-3.270;2024-03-02T02:44:19;97994.05;;;3.10;100.00
78409;BME280;67697;50.750;-3.270;2024-03-02T02:46:45;97991.10;;;2.48;100.00
78409;BME280;67697;50.750;-3.270;2024-03-02T02:49:11;97985.51;;;3.54;100.00
78409;BME280;67697;50.750;-3.270;2024-03-02T02:51:36;97984.76;;;4.26;100.00
78409;BME280;67697;50.750;-3.270;2024-03-02T02:54:02;97981.44;;;3.92;100.00
78409;BME280;67697;50.750;-3.270;2024-03-02T02:56:28;97984.24;;;3.30;100.00
78409;BME280;67697;50.750;-3.270;2024-03-02T02:58:53;97985.83;;;3.70;100.00
78409;BME280;67697;50.750;-3.270;2024-03-02T03:01:20;97981.75;;;4.53;100.00
78409;BME280;67697;50.750;-3.270;2024-03-02T03:03:45;97984.29;;;4.07;100.00
78409;BME280;67697;50.750;-3.270;2024-03-02T03:06:13;97981.46;;;4.07;100.00
78409;BME280;67697;50.750;-3.270;2024-03-02T03:08:36;97981.82;;;4.00;100.00
78409;BME280;67697;50.750;-3.270;2024-03-02T03:11:03;97974.20;;;3.87;100.00
78409;BME280;67697;50.750;-3.270;2024-03-02T03:13:28;97973.85;;;3.79;100.00
78409;BME280;67697;50.750;-3.270;2024-03-02T03:15:54;97976.81;;;2.88;100.00
78409;BME280;67697;50.750;-3.270;2024-03-02T03:18:20;97977.37;;;3.48;100.00
78409;BME280;67697;50.750;-3.270;2024-03-02T03:20:45;97978.75;;;2.44;100.00
78409;BME280;67697;50.750;-3.270;2024-03-02T03:23:11;97970.60;;;4.57;100.00
78409;BME280;67697;50.750;-3.270;2024-03-02T03:25:37;97973.80;;;3.49;100.00
78409;BME280;67697;50.750;-3.270;2024-03-02T03:28:03;97971.17;;;4.32;100.00
78409;BME280;67697;50.750;-3.270;2024-03-02T03:30:29;97975.55;;;4.21;100.00
78409;BME280;67697;50.750;-3.270;2024-03-02T03:32:54;97980.23;;;3.53;100.00
78409;BME280;67697;50.750;-3.270;2024-03-02T03:35:21;97982.09;;;4.23;100.00
78409;BME280;67697;50.750;-3.270;2024-03-02T03:37:46;97985.12;;;4.56;100.00
78409;BME280;67697;50.750;-3.270;2024-03-02T03:40:12;97985.57;;;5.52;100.00
78409;BME280;67697;50.750;-3.270;2024-03-02T03:42:38;97987.31;;;5.47;100.00
78409;BME280;67697;50.750;-3.270;2024-03-02T03:45:04;97988.84;;;5.20;100.00
78409;BME280;67697;50.750;-3.270;2024-03-02T03:47:31;97988.35;;;4.50;100.00
78409;BME280;67697;50.750;-3.270;2024-03-02T03:49:55;97996.86;;;4.10;100.00
78409;BME280;67697;50.750;-3.270;2024-03-02T03:52:21;97995.97;;;4.42;100.00
78409;BME280;67697;50.750;-3.270;2024-03-02T03:54:47;97999.69;;;4.50;100.00
78409;BME280;67697;50.750;-3.270;2024-03-02T03:57:13;98003.25;;;3.79;100.00
78409;BME280;67697;50.750;-3.270;2024-03-02T03:59:38;98006.97;;;2.93;100.00
78409;BME280;67697;50.750;-3.270;2024-03-02T04:02:04;98006.88;;;2.96;100.00
78409;BME280;67697;50.750;-3.270;2024-03-02T04:04:30;98008.25;;;2.54;100.00
78409;BME280;67697;50.750;-3.270;2024-03-02T04:06:56;98006.15;;;3.84;100.00
78409;BME280;67697;50.750;-3.270;2024-03-02T04:09:22;98007.38;;;2.17;100.00
78409;BME280;67697;50.750;-3.270;2024-03-02T04:11:48;98011.20;;;3.03;100.00
78409;BME280;67697;50.750;-3.270;2024-03-02T04:14:13;98010.91;;;4.03;100.00
78409;BME280;67697;50.750;-3.270;2024-03-02T04:16:39;98014.22;;;3.71;100.00
78409;BME280;67697;50.750;-3.270;2024-03-02T04:19:05;98014.00;;;4.00;100.00
78409;BME280;67697;50.750;-3.270;2024-03-02T04:21:30;98014.18;;;4.08;100.00
78409;BME280;67697;50.750;-3.270;2024-03-02T04:23:57;98021.83;;;2.51;100.00
78409;BME280;67697;50.750;-3.270;2024-03-02T04:26:21;98023.36;;;3.53;100.00
78409;BME280;67697;50.750;-3.270;2024-03-02T04:28:47;98025.56;;;2.36;100.00
78409;BME280;67697;50.750;-3.270;2024-03-02T04:31:12;98023.99;;;3.44;100.00
78409;BME280;67697;50.750;-3.270;2024-03-02T04:33:38;98028.23;;;3.71;100.00
78409;BME280;67697;50.750;-3.270;2024-03-02T04:36:04;98027.48;;;3.15;100.00
78409;BME280;67697;50.750;-3.270;2024-03-02T04:38:29;98030.77;;;3.54;100.00
78409;BME280;67697;50.750;-3.270;2024-03-02T04:40:55;98032.94;;;4.25;100.00
78409;BME280;67697;50.750;-3.270;2024-03-02T04:43:20;98034.55;;;4.84;100.00
78409;BME280;67697;50.750;-3.270;2024-03-02T04:45:46;98038.54;;;4.51;100.00
78409;BME280;67697;50.750;-3.270;2024-03-02T04:48:13;98039.35;;;5.44;100.00
78409;BME280;67697;50.750;-3.270;2024-03-02T04:50:38;98045.90;;;2.72;100.00
78409;BME280;67697;50.750;-3.270;2024-03-02T04:53:04;98047.71;;;4.70;100.00
78409;BME280;67697;50.750;-3.270;2024-03-02T04:55:29;98044.72;;;3.89;100.00
78409;BME280;67697;50.750;-3.270;2024-03-02T04:57:55;98049.64;;;4.19;100.00
78409;BME280;67697;50.750;-3.270;2024-03-02T05:00:21;98046.40;;;4.67;100.00
78409;BME280;67697;50.750;-3.270;2024-03-02T05:02:46;98050.89;;;4.22;100.00
78409;BME280;67697;50.750;-3.270;2024-03-02T05:05:12;98050.40;;;4.73;100.00
78409;BME280;67697;50.750;-3.270;2024-03-02T05:07:38;98056.43;;;4.76;100.00
78409;BME280;67697;50.750;-3.270;2024-03-02T05:10:04;98061.55;;;5.25;100.00
78409;BME280;67697;50.750;-3.270;2024-03-02T05:12:30;98061.65;;;5.17;100.00
78409;BME280;67697;50.750;-3.270;2024-03-02T05:14:56;98062.40;;;6.27;100.00
78409;BME280;67697;50.750;-3.270;2024-03-02T05:17:21;98065.05;;;4.26;100.00
78409;BME280;67697;50.750;-3.270;2024-03-02T05:19:47;98073.25;;;5.74;100.00
78409;BME280;67697;50.750;-3.270;2024-03-02T05:22:13;98077.53;;;5.85;100.00
78409;BME280;67697;50.750;-3.270;2024-03-02T05:24:39;98081.24;;;5.29;100.00
78409;BME280;67697;50.750;-3.270;2024-03-02T05:27:05;98089.46;;;4.19;100.00
78409;BME280;67697;50.750;-3.270;2024-03-02T05:29:30;98098.18;;;3.97;100.00
78409;BME280;67697;50.750;-3.270;2024-03-02T05:31:56;98104.26;;;3.32;100.00
78409;BME280;67697;50.750;-3.270;2024-03-02T05:34:22;98106.35;;;4.67;100.00
78409;BME280;67697;50.750;-3.270;2024-03-02T05:36:48;98113.62;;;4.01;100.00
78409;BME280;67697;50.750;-3.270;2024-03-02T05:39:14;98122.83;;;2.87;100.00
78409;BME280;67697;50.750;-3.270;2024-03-02T05:41:39;98121.79;;;3.20;100.00
78409;BME280;67697;50.750;-3.270;2024-03-02T05:44:05;98122.56;;;3.88;100.00
78409;BME280;67697;50.750;-3.270;2024-03-02T05:46:31;98129.68;;;2.31;100.00
78409;BME280;67697;50.750;-3.270;2024-03-02T05:48:57;98124.02;;;3.51;100.00
78409;BME280;67697;50.750;-3.270;2024-03-02T05:51:23;98126.23;;;3.25;100.00
78409;BME280;67697;50.750;-3.270;2024-03-02T05:53:48;98127.95;;;4.14;100.00
78409;BME280;67697;50.750;-3.270;2024-03-02T05:56:14;98126.10;;;4.21;100.00
78409;BME280;67697;50.750;-3.270;2024-03-02T05:58:41;98126.73;;;4.72;100.00
78409;BME280;67697;50.750;-3.270;2024-03-02T06:01:07;98133.23;;;3.18;100.00
78409;BME280;67697;50.750;-3.270;2024-03-02T06:03:31;98134.39;;;4.10;100.00
78409;BME280;67697;50.750;-3.270;2024-03-02T06:05:56;98135.21;;;3.72;100.00
78409;BME280;67697;50.750;-3.270;2024-03-02T06:08:22;98138.31;;;3.20;100.00
78409;BME280;67697;50.750;-3.270;2024-03-02T06:10:47;98139.10;;;4.23;100.00
78409;BME280;67697;50.750;-3.270;2024-03-02T06:13:15;98138.54;;;4.41;100.00
78409;BME280;67697;50.750;-3.270;2024-03-02T06:15:39;98139.60;;;4.06;100.00
78409;BME280;67697;50.750;-3.270;2024-03-02T06:18:05;98137.78;;;3.99;100.00
78409;BME280;67697;50.750;-3.270;2024-03-02T06:20:31;98139.04;;;3.98;100.00
78409;BME280;67697;50.750;-3.270;2024-03-02T06:22:56;98142.68;;;3.83;100.00
78409;BME280;67697;50.750;-3.270;2024-03-02T06:25:22;98141.64;;;3.11;100.00
78409;BME280;67697;50.750;-3.270;2024-03-02T06:27:47;98141.47;;;3.42;100.00
78409;BME280;67697;50.750;-3.270;2024-03-02T06:30:13;98144.29;;;3.50;100.00
78409;BME280;67697;50.750;-3.270;2024-03-02T06:32:39;98147.58;;;4.42;100.00
78409;BME280;67697;50.750;-3.270;2024-03-02T06:35:05;98147.70;;;3.54;100.00
78409;BME280;67697;50.750;-3.270;2024-03-02T06:37:30;98149.10;;;4.75;100.00
78409;BME280;67697;50.750;-3.270;2024-03-02T06:39:56;98155.98;;;3.16;100.00
78409;BME280;67697;50.750;-3.270;2024-03-02T06:42:22;98159.14;;;3.76;100.00
78409;BME280;67697;50.750;-3.270;2024-03-02T06:44:48;98162.98;;;3.46;100.00
78409;BME280;67697;50.750;-3.270;2024-03-02T06:47:13;98166.66;;;3.51;100.00
78409;BME280;67697;50.750;-3.270;2024-03-02T06:49:39;98172.11;;;3.93;100.00
78409;BME280;67697;50.750;-3.270;2024-03-02T06:52:04;98173.42;;;4.34;100.00
78409;BME280;67697;50.750;-3.270;2024-03-02T06:54:29;98176.84;;;4.15;100.00
78409;BME280;67697;50.750;-3.270;2024-03-02T06:56:54;98177.99;;;4.46;100.00
78409;BME280;67697;50.750;-3.270;2024-03-02T06:59:20;98180.97;;;5.35;100.00
78409;BME280;67697;50.750;-3.270;2024-03-02T07:01:46;98186.49;;;4.54;100.00
78409;BME280;67697;50.750;-3.270;2024-03-02T07:04:12;98191.96;;;4.10;100.00
78409;BME280;67697;50.750;-3.270;2024-03-02T07:06:37;98194.48;;;4.16;100.00
78409;BME280;67697;50.750;-3.270;2024-03-02T07:09:02;98195.53;;;3.93;100.00
78409;BME280;67697;50.750;-3.270;2024-03-02T07:11:28;98202.30;;;3.58;100.00
78409;BME280;67697;50.750;-3.270;2024-03-02T07:13:54;98205.99;;;3.57;100.00
78409;BME280;67697;50.750;-3.270;2024-03-02T07:16:18;98207.77;;;3.49;100.00
78409;BME280;67697;50.750;-3.270;2024-03-02T07:18:44;98209.73;;;3.52;100.00
78409;BME280;67697;50.750;-3.270;2024-03-02T07:21:10;98210.72;;;4.08;100.00
78409;BME280;67697;50.750;-3.270;2024-03-02T07:23:36;98217.48;;;3.62;100.00
78409;BME280;67697;50.750;-3.270;2024-03-02T07:26:02;98217.38;;;3.36;100.00
78409;BME280;67697;50.750;-3.270;2024-03-02T07:28:27;98211.38;;;4.50;100.00
78409;BME280;67697;50.750;-3.270;2024-03-02T07:30:57;98216.12;;;5.04;100.00
78409;BME280;67697;50.750;-3.270;2024-03-02T07:33:18;98219.90;;;5.69;100.00
78409;BME280;67697;50.750;-3.270;2024-03-02T07:35:44;98223.98;;;4.74;100.00
78409;BME280;67697;50.750;-3.270;2024-03-02T07:38:10;98225.44;;;5.06;100.00
78409;BME280;67697;50.750;-3.270;2024-03-02T07:40:35;98225.20;;;4.45;100.00
78409;BME280;67697;50.750;-3.270;2024-03-02T07:43:01;98229.56;;;5.07;100.00
78409;BME280;67697;50.750;-3.270;2024-03-02T07:45:26;98232.62;;;4.93;100.00
78409;BME280;67697;50.750;-3.270;2024-03-02T07:47:53;98235.50;;;6.55;100.00
78409;BME280;67697;50.750;-3.270;2024-03-02T07:50:18;98240.07;;;6.79;100.00
78409;BME280;67697;50.750;-3.270;2024-03-02T07:52:44;98243.59;;;4.13;100.00
78409;BME280;67697;50.750;-3.270;2024-03-02T07:55:10;98240.60;;;6.53;100.00
78409;BME280;67697;50.750;-3.270;2024-03-02T07:57:35;98243.20;;;6.32;100.00
78409;BME280;67697;50.750;-3.270;2024-03-02T08:00:01;98245.62;;;5.85;100.00
78409;BME280;67697;50.750;-3.270;2024-03-02T08:02:27;98248.28;;;6.27;100.00
78409;BME280;67697;50.750;-3.270;2024-03-02T08:04:52;98244.27;;;5.95;100.00
78409;BME280;67697;50.750;-3.270;2024-03-02T08:07:18;98250.79;;;5.69;100.00
78409;BME280;67697;50.750;-3.270;2024-03-02T08:09:44;98258.22;;;3.96;100.00
78409;BME280;67697;50.750;-3.270;2024-03-02T08:12:10;98257.47;;;5.77;100.00
78409;BME280;67697;50.750;-3.270;2024-03-02T08:14:36;98261.79;;;5.67;100.00
78409;BME280;67697;50.750;-3.270;2024-03-02T08:17:02;98270.33;;;4.85;100.00
78409;BME280;67697;50.750;-3.270;2024-03-02T08:19:27;98271.72;;;5.42;100.00
78409;BME280;67697;50.750;-3.270;2024-03-02T08:21:54;98274.08;;;4.68;100.00
78409;BME280;67697;50.750;-3.270;2024-03-02T08:24:19;98279.21;;;5.12;100.00
78409;BME280;67697;50.750;-3.270;2024-03-02T08:26:45;98281.70;;;4.95;100.00
78409;BME280;67697;50.750;-3.270;2024-03-02T08:29:11;98282.22;;;4.48;100.00
78409;BME280;67697;50.750;-3.270;2024-03-02T08:31:36;98286.79;;;5.66;100.00
78409;BME280;67697;50.750;-3.270;2024-03-02T08:34:02;98288.62;;;4.68;100.00
78409;BME280;67697;50.750;-3.270;2024-03-02T08:36:27;98285.59;;;5.83;100.00
78409;BME280;67697;50.750;-3.270;2024-03-02T08:38:54;98290.27;;;4.59;100.00
78409;BME280;67697;50.750;-3.270;2024-03-02T08:41:19;98299.60;;;4.24;100.00
78409;BME280;67697;50.750;-3.270;2024-03-02T08:43:45;98303.52;;;3.45;100.00
78409;BME280;67697;50.750;-3.270;2024-03-02T08:46:11;98306.59;;;3.71;100.00
78409;BME280;67697;50.750;-3.270;2024-03-02T08:48:36;98307.95;;;3.72;100.00
78409;BME280;67697;50.750;-3.270;2024-03-02T08:51:03;98304.19;;;4.84;100.00
78409;BME280;67697;50.750;-3.270;2024-03-02T08:53:28;98313.54;;;3.65;100.00
78409;BME280;67697;50.750;-3.270;2024-03-02T08:55:54;98312.77;;;2.99;100.00
78409;BME280;67697;50.750;-3.270;2024-03-02T08:58:20;98313.88;;;3.47;100.00
78409;BME280;67697;50.750;-3.270;2024-03-02T09:00:47;98316.79;;;3.64;100.00
78409;BME280;67697;50.750;-3.270;2024-03-02T09:03:11;98316.16;;;3.72;100.00
78409;BME280;67697;50.750;-3.270;2024-03-02T09:05:37;98313.06;;;4.48;100.00
78409;BME280;67697;50.750;-3.270;2024-03-02T09:08:03;98313.70;;;5.57;100.00
78409;BME280;67697;50.750;-3.270;2024-03-02T09:10:28;98319.70;;;4.05;100.00
78409;BME280;67697;50.750;-3.270;2024-03-02T09:12:54;98316.65;;;3.97;100.00
78409;BME280;67697;50.750;-3.270;2024-03-02T09:15:20;98317.58;;;4.63;100.00
78409;BME280;67697;50.750;-3.270;2024-03-02T09:17:46;98330.96;;;4.27;100.00
78409;BME280;67697;50.750;-3.270;2024-03-02T09:20:12;98331.17;;;3.03;100.00
78409;BME280;67697;50.750;-3.270;2024-03-02T09:22:37;98334.73;;;4.00;100.00
78409;BME280;67697;50.750;-3.270;2024-03-02T09:25:04;98332.45;;;5.14;100.00
78409;BME280;67697;50.750;-3.270;2024-03-02T09:27:29;98342.56;;;3.78;100.00
78409;BME280;67697;50.750;-3.270;2024-03-02T09:29:55;98340.51;;;3.87;100.00
78409;BME280;67697;50.750;-3.270;2024-03-02T09:32:21;98338.49;;;4.50;100.00
78409;BME280;67697;50.750;-3.270;2024-03-02T09:34:46;98339.17;;;5.31;100.00
78409;BME280;67697;50.750;-3.270;2024-03-02T09:37:12;98340.47;;;5.37;100.00
78409;BME280;67697;50.750;-3.270;2024-03-02T09:39:38;98344.90;;;4.02;100.00
78409;BME280;67697;50.750;-3.270;2024-03-02T09:42:04;98348.19;;;4.34;100.00
78409;BME280;67697;50.750;-3.270;2024-03-02T09:44:29;98352.79;;;3.94;100.00
78409;BME280;67697;50.750;-3.270;2024-03-02T09:46:55;98357.71;;;3.88;100.00
78409;BME280;67697;50.750;-3.270;2024-03-02T09:49:21;98349.94;;;4.67;100.00
78409;BME280;67697;50.750;-3.270;2024-03-02T09:51:48;98353.52;;;4.45;100.00
78409;BME280;67697;50.750;-3.270;2024-03-02T09:54:13;98355.85;;;4.37;100.00
78409;BME280;67697;50.750;-3.270;2024-03-02T09:56:39;98356.61;;;5.23;100.00
78409;BME280;67697;50.750;-3.270;2024-03-02T09:59:04;98363.40;;;4.41;100.00
78409;BME280;67697;50.750;-3.270;2024-03-02T10:01:29;98367.81;;;4.46;100.00
78409;BME280;67697;50.750;-3.270;2024-03-02T10:03:56;98361.10;;;4.69;100.00
78409;BME280;67697;50.750;-3.270;2024-03-02T10:06:22;98362.29;;;5.12;100.00
78409;BME280;67697;50.750;-3.270;2024-03-02T10:08:47;98362.25;;;5.49;100.00
78409;BME280;67697;50.750;-3.270;2024-03-02T10:13:38;98361.65;;;5.63;100.00
78409;BME280;67697;50.750;-3.270;2024-03-02T10:16:11;98360.02;;;5.51;100.00
78409;BME280;67697;50.750;-3.270;2024-03-02T10:18:29;98364.13;;;5.58;100.00
78409;BME280;67697;50.750;-3.270;2024-03-02T10:20:55;98365.50;;;6.31;100.00
78409;BME280;67697;50.750;-3.270;2024-03-02T10:23:21;98360.12;;;6.44;100.00
78409;BME280;67697;50.750;-3.270;2024-03-02T10:25:47;98367.86;;;5.29;100.00
78409;BME280;67697;50.750;-3.270;2024-03-02T10:28:12;98368.95;;;5.86;100.00
78409;BME280;67697;50.750;-3.270;2024-03-02T10:30:38;98368.67;;;5.42;100.00
78409;BME280;67697;50.750;-3.270;2024-03-02T10:33:05;98376.91;;;5.56;100.00
78409;BME280;67697;50.750;-3.270;2024-03-02T10:35:29;98378.03;;;5.08;100.00
78409;BME280;67697;50.750;-3.270;2024-03-02T10:37:55;98377.70;;;6.05;100.00
78409;BME280;67697;50.750;-3.270;2024-03-02T10:40:22;98384.95;;;4.89;100.00
78409;BME280;67697;50.750;-3.270;2024-03-02T10:42:47;98386.92;;;5.02;100.00
78409;BME280;67697;50.750;-3.270;2024-03-02T10:45:15;98386.96;;;5.68;100.00
78409;BME280;67697;50.750;-3.270;2024-03-02T10:47:38;98384.91;;;6.63;100.00
78409;BME280;67697;50.750;-3.270;2024-03-02T10:50:05;98386.95;;;6.34;100.00
78409;BME280;67697;50.750;-3.270;2024-03-02T10:52:30;98391.70;;;6.32;100.00
78409;BME280;67697;50.750;-3.270;2024-03-02T10:54:55;98396.38;;;6.64;100.00
78409;BME280;67697;50.750;-3.270;2024-03-02T10:57:22;98404.12;;;5.34;100.00
78409;BME280;67697;50.750;-3.270;2024-03-02T10:59:52;98404.81;;;5.10;100.00
78409;BME280;67697;50.750;-3.270;2024-03-02T11:02:12;98416.50;;;4.77;100.00
78409;BME280;67697;50.750;-3.270;2024-03-02T11:04:39;98413.11;;;5.46;100.00
78409;BME280;67697;50.750;-3.270;2024-03-02T11:07:06;98419.90;;;4.88;100.00
78409;BME280;67697;50.750;-3.270;2024-03-02T11:09:33;98417.31;;;5.40;100.00
78409;BME280;67697;50.750;-3.270;2024-03-02T11:12:02;98418.63;;;5.80;100.00
78409;BME280;67697;50.750;-3.270;2024-03-02T11:14:24;98426.65;;;5.70;100.00
78409;BME280;67697;50.750;-3.270;2024-03-02T11:16:47;98422.50;;;6.14;100.00
78409;BME280;67697;50.750;-3.270;2024-03-02T11:19:14;98426.87;;;5.35;100.00
78409;BME280;67697;50.750;-3.270;2024-03-02T11:21:39;98430.36;;;5.76;100.00
78409;BME280;67697;50.750;-3.270;2024-03-02T11:26:36;98435.80;;;5.32;100.00
78409;BME280;67697;50.750;-3.270;2024-03-02T11:28:56;98437.77;;;5.24;100.00
78409;BME280;67697;50.750;-3.270;2024-03-02T11:31:21;98440.65;;;5.29;100.00
78409;BME280;67697;50.750;-3.270;2024-03-02T11:33:47;98441.09;;;6.26;100.00
78409;BME280;67697;50.750;-3.270;2024-03-02T11:36:12;98440.71;;;5.16;100.00
78409;BME280;67697;50.750;-3.270;2024-03-02T11:38:38;98453.26;;;3.61;100.00
78409;BME280;67697;50.750;-3.270;2024-03-02T11:41:07;98454.33;;;3.78;100.00
78409;BME280;67697;50.750;-3.270;2024-03-02T11:43:30;98451.22;;;5.25;100.00
78409;BME280;67697;50.750;-3.270;2024-03-02T11:46:00;98447.08;;;5.79;100.00
78409;BME280;67697;50.750;-3.270;2024-03-02T11:48:21;98449.46;;;5.90;100.00
78409;BME280;67697;50.750;-3.270;2024-03-02T11:50:49;98449.67;;;4.86;100.00
78409;BME280;67697;50.750;-3.270;2024-03-02T11:53:12;98448.12;;;5.00;100.00
78409;BME280;67697;50.750;-3.270;2024-03-02T11:55:39;98449.07;;;5.13;100.00
78409;BME280;67697;50.750;-3.270;2024-03-02T11:58:06;98454.29;;;4.96;100.00
78409;BME280;67697;50.750;-3.270;2024-03-02T12:00:30;98453.04;;;5.30;100.00
78409;BME280;67697;50.750;-3.270;2024-03-02T12:03:00;98452.80;;;5.11;100.00
78409;BME280;67697;50.750;-3.270;2024-03-02T12:05:21;98446.38;;;6.13;100.00
78409;BME280;67697;50.750;-3.270;2024-03-02T12:07:47;98447.21;;;5.64;100.00
78409;BME280;67697;50.750;-3.270;2024-03-02T12:10:15;98448.99;;;6.26;100.00
78409;BME280;67697;50.750;-3.270;2024-03-02T12:12:38;98446.46;;;5.47;100.00
78409;BME280;67697;50.750;-3.270;2024-03-02T12:15:05;98452.25;;;5.27;100.00
78409;BME280;67697;50.750;-3.270;2024-03-02T12:17:30;98455.64;;;5.16;100.00
78409;BME280;67697;50.750;-3.270;2024-03-02T12:19:56;98449.24;;;5.67;100.00
78409;BME280;67697;50.750;-3.270;2024-03-02T12:22:22;98455.62;;;4.55;100.00
78409;BME280;67697;50.750;-3.270;2024-03-02T12:24:49;98448.74;;;5.16;100.00
78409;BME280;67697;50.750;-3.270;2024-03-02T12:27:13;98441.79;;;5.86;100.00
78409;BME280;67697;50.750;-3.270;2024-03-02T12:29:39;98442.47;;;5.09;100.00
78409;BME280;67697;50.750;-3.270;2024-03-02T12:32:05;98439.42;;;6.27;100.00
78409;BME280;67697;50.750;-3.270;2024-03-02T12:34:30;98443.92;;;6.51;100.00
78409;BME280;67697;50.750;-3.270;2024-03-02T12:36:56;98442.00;;;6.46;100.00
78409;BME280;67697;50.750;-3.270;2024-03-02T12:39:22;98442.70;;;6.80;100.00
78409;BME280;67697;50.750;-3.270;2024-03-02T12:41:47;98440.59;;;7.12;100.00
78409;BME280;67697;50.750;-3.270;2024-03-02T12:44:13;98432.66;;;7.51;100.00
78409;BME280;67697;50.750;-3.270;2024-03-02T12:46:39;98437.02;;;6.86;100.00